Time,TemperatureF,DewpointF,PressureIn,WindDirection,WindDirectionDegrees,WindSpeedMPH,WindSpeedGustMPH,Humidity,HourlyPrecipIn,Conditions,Clouds,dailyrainin,SoftwareType,DateUTC
2013-01-31 06:01:00,44.0,43.0,30.35,South,183,0.0,0.0,96,0.00,,,0.42,,2013-01-31 14:01:00,
2013-01-31 06:11:00,44.0,43.0,30.35,South,183,0.0,0.0,96,0.00,,,0.42,,2013-01-31 14:11:00,
2013-01-31 06:21:00,43.0,42.0,30.35,South,183,0.0,0.0,96,0.00,,,0.42,,2013-01-31 14:21:00,
2013-01-31 06:31:00,43.0,42.0,30.35,South,183,0.0,0.0,96,0.00,,,0.42,,2013-01-31 14:31:00,
2013-01-31 06:41:00,43.0,42.0,30.35,South,183,0.0,0.0,96,0.00,,,0.42,,2013-01-31 14:41:00,
2013-01-31 06:52:00,43.0,42.0,30.35,South,183,0.0,0.0,96,0.00,,,0.41,,2013-01-31 14:52:00,
2013-01-31 07:02:00,42.0,41.0,30.35,South,183,0.0,0.0,96,0.00,,,0.41,,2013-01-31 15:02:00,
2013-01-31 07:11:00,42.0,41.0,30.35,South,183,0.0,0.0,96,0.00,,,0.41,,2013-01-31 15:11:00,
2013-01-31 07:21:00,42.0,41.0,30.36,South,183,0.0,0.0,96,0.00,,,0.41,,2013-01-31 15:21:00,
2013-01-31 07:31:00,42.0,41.0,30.35,South,183,0.0,0.0,96,0.00,,,0.41,,2013-01-31 15:31:00,
2013-01-31 07:42:00,42.0,41.0,30.35,South,183,0.0,0.0,96,0.00,,,0.41,,2013-01-31 15:42:00,
2013-01-31 07:52:00,42.0,41.0,30.35,South,182,0.0,0.0,96,0.00,,,0.35,,2013-01-31 15:52:00,
2013-01-31 08:03:00,42.0,41.0,30.35,South,182,0.0,0.0,96,0.00,,,0.35,,2013-01-31 16:03:00,
2013-01-31 08:11:00,42.0,41.0,30.35,South,182,0.0,0.0,96,0.00,,,0.35,,2013-01-31 16:11:00,
2013-01-31 08:21:00,42.0,41.0,30.35,South,182,0.0,0.0,95,0.00,,,0.35,,2013-01-31 16:21:00,
2013-01-31 08:32:00,41.0,40.0,30.34,South,182,0.0,0.0,95,0.00,,,0.35,,2013-01-31 16:32:00,
2013-01-31 08:41:00,41.0,40.0,30.34,South,182,0.0,0.0,95,0.00,,,0.35,,2013-01-31 16:41:00,
2013-01-31 08:52:00,41.0,40.0,30.34,South,182,0.0,0.0,96,0.01,,,0.30,,2013-01-31 16:52:00,
2013-01-31 09:01:00,41.0,40.0,30.35,South,182,0.0,0.0,96,0.01,,,0.30,,2013-01-31 17:01:00,
2013-01-31 09:11:00,41.0,40.0,30.35,South,182,0.0,0.0,96,0.01,,,0.30,,2013-01-31 17:11:00,
2013-01-31 09:22:00,42.0,41.0,30.35,South,182,0.0,0.0,96,0.01,,,0.30,,2013-01-31 17:22:00,
2013-01-31 09:31:00,42.0,41.0,30.35,South,182,0.0,0.0,96,0.01,,,0.30,,2013-01-31 17:31:00,
2013-01-31 09:42:00,42.0,41.0,30.35,South,182,0.0,0.0,96,0.01,,,0.30,,2013-01-31 17:42:00,
2013-01-31 09:53:00,43.0,42.0,30.35,South,182,0.0,0.0,96,0.00,,,0.25,,2013-01-31 17:53:00,
2013-01-31 10:02:00,44.0,43.0,30.35,South,182,0.0,0.0,96,0.00,,,0.25,,2013-01-31 18:02:00,
2013-01-31 10:11:00,45.0,44.0,30.35,South,182,0.0,2.0,96,0.00,,,0.25,,2013-01-31 18:11:00,
2013-01-31 10:21:00,45.0,44.0,30.35,South,182,0.0,2.0,96,0.00,,,0.25,,2013-01-31 18:21:00,
2013-01-31 10:31:00,46.0,45.0,30.34,South,182,0.0,2.0,96,0.00,,,0.25,,2013-01-31 18:31:00,
2013-01-31 10:42:00,46.0,45.0,30.34,South,182,0.0,2.0,96,0.00,,,0.25,,2013-01-31 18:42:00,
2013-01-31 10:52:00,46.0,45.0,30.34,South,182,0.0,0.0,96,0.00,,,0.24,,2013-01-31 18:52:00,
2013-01-31 11:01:00,47.0,46.0,30.34,South,182,0.0,0.0,97,0.00,,,0.24,,2013-01-31 19:01:00,
2013-01-31 11:11:00,47.0,46.0,30.34,South,182,0.0,0.0,97,0.00,,,0.24,,2013-01-31 19:11:00,
2013-01-31 11:21:00,47.0,46.0,30.34,South,182,0.0,1.0,96,0.00,,,0.24,,2013-01-31 19:21:00,
2013-01-31 11:32:00,47.0,46.0,30.34,South,182,0.0,0.0,96,0.00,,,0.24,,2013-01-31 19:32:00,
2013-01-31 11:42:00,47.0,46.0,30.34,South,182,0.0,0.0,96,0.00,,,0.24,,2013-01-31 19:42:00,
2013-01-31 11:52:00,47.0,46.0,30.34,South,182,0.0,0.0,96,0.01,,,0.23,,2013-01-31 19:52:00,
2013-01-31 12:01:00,47.0,46.0,30.33,South,182,0.0,1.0,96,0.01,,,0.23,,2013-01-31 20:01:00,
2013-01-31 12:11:00,47.0,46.0,30.33,South,182,0.0,1.0,96,0.01,,,0.23,,2013-01-31 20:11:00,
2013-01-31 12:21:00,46.0,45.0,30.33,South,176,1.0,4.0,96,0.01,,,0.23,,2013-01-31 20:21:00,
2013-01-31 12:31:00,46.0,45.0,30.32,South,169,1.0,3.0,96,0.02,,,0.24,,2013-01-31 20:31:00,
2013-01-31 12:41:00,46.0,45.0,30.32,SW,217,0.0,1.0,96,0.01,,,0.23,,2013-01-31 20:41:00,
2013-01-31 12:52:00,46.0,45.0,30.32,SW,217,0.0,1.0,96,0.01,,,0.23,,2013-01-31 20:52:00,
2013-01-31 13:01:00,46.0,45.0,30.31,SW,217,0.0,0.0,96,0.01,,,0.23,,2013-01-31 21:01:00,
2013-01-31 13:11:00,46.0,45.0,30.31,SW,217,0.0,0.0,96,0.01,,,0.23,,2013-01-31 21:11:00,
2013-01-31 13:21:00,46.0,45.0,30.31,SW,217,0.0,0.0,96,0.01,,,0.23,,2013-01-31 21:21:00,
2013-01-31 13:31:00,46.0,45.0,30.31,SW,217,0.0,0.0,96,0.00,,,0.23,,2013-01-31 21:31:00,
2013-01-31 13:42:00,46.0,45.0,30.31,SW,217,0.0,0.0,96,0.00,,,0.23,,2013-01-31 21:42:00,
2013-01-31 13:52:00,47.0,46.0,30.31,SW,217,0.0,1.0,97,0.00,,,0.20,,2013-01-31 21:52:00,
2013-01-31 14:02:00,47.0,46.0,30.31,SE,125,0.0,4.0,97,0.00,,,0.20,,2013-01-31 22:02:00,
2013-01-31 14:11:00,47.0,46.0,30.31,SE,125,0.0,4.0,97,0.00,,,0.20,,2013-01-31 22:11:00,
2013-01-31 14:21:00,47.0,46.0,30.30,SSE,164,0.0,4.0,96,0.00,,,0.20,,2013-01-31 22:21:00,
2013-01-31 14:32:00,47.0,46.0,30.30,South,169,0.0,2.0,96,0.00,,,0.20,,2013-01-31 22:32:00,
2013-01-31 14:42:00,47.0,46.0,30.30,South,169,0.0,2.0,96,0.00,,,0.20,,2013-01-31 22:42:00,
2013-01-31 14:52:00,47.0,46.0,30.29,South,182,1.0,5.0,96,0.00,,,0.18,,2013-01-31 22:52:00,
2013-01-31 15:01:00,47.0,46.0,30.29,South,184,0.0,6.0,96,0.00,,,0.18,,2013-01-31 23:01:00,
2013-01-31 15:11:00,47.0,46.0,30.29,South,184,0.0,6.0,96,0.00,,,0.18,,2013-01-31 23:11:00,
2013-01-31 15:21:00,47.0,46.0,30.29,WSW,238,1.0,5.0,95,0.00,,,0.18,,2013-01-31 23:21:00,
2013-01-31 15:31:00,47.0,45.0,30.29,South,177,0.0,9.0,94,0.00,,,0.18,,2013-01-31 23:31:00,
2013-01-31 15:41:00,47.0,45.0,30.29,South,177,0.0,9.0,94,0.00,,,0.18,,2013-01-31 23:41:00,
2013-01-31 15:52:00,47.0,45.0,30.28,SSE,162,2.0,9.0,93,0.00,,,0.18,,2013-01-31 23:52:00,
2013-01-31 16:01:00,47.0,45.0,30.28,SSE,148,3.0,9.0,92,0.00,,,0.18,,2013-02-01 00:01:00,
2013-01-31 16:11:00,47.0,45.0,30.28,SSE,148,3.0,9.0,92,0.00,,,0.18,,2013-02-01 00:11:00,
2013-01-31 16:21:00,47.0,45.0,30.28,SE,145,1.0,6.0,91,0.00,,,0.18,,2013-02-01 00:21:00,
2013-01-31 16:31:00,47.0,45.0,30.28,South,175,0.0,4.0,91,0.00,,,0.18,,2013-02-01 00:31:00,
2013-01-31 16:42:00,47.0,45.0,30.28,South,175,0.0,4.0,91,0.00,,,0.18,,2013-02-01 00:42:00,
2013-01-31 16:51:00,47.0,45.0,30.28,South,176,0.0,1.0,91,0.00,,,0.17,,2013-02-01 00:51:00,
2013-01-31 17:01:00,47.0,45.0,30.28,South,176,0.0,2.0,91,0.00,,,0.17,,2013-02-01 01:01:00,
2013-01-31 17:11:00,46.0,44.0,30.28,South,176,0.0,0.0,91,0.00,,,0.17,,2013-02-01 01:11:00,
2013-01-31 17:21:00,46.0,44.0,30.28,South,176,0.0,0.0,91,0.00,,,0.17,,2013-02-01 01:21:00,
2013-01-31 17:31:00,46.0,44.0,30.28,South,176,0.0,0.0,92,0.00,,,0.17,,2013-02-01 01:31:00,
2013-01-31 17:41:00,46.0,44.0,30.28,South,176,0.0,0.0,92,0.00,,,0.17,,2013-02-01 01:41:00,
2013-01-31 17:52:00,46.0,44.0,30.28,South,176,0.0,0.0,92,0.00,,,0.16,,2013-02-01 01:52:00,
2013-01-31 18:01:00,46.0,44.0,30.28,South,176,0.0,0.0,92,0.00,,,0.16,,2013-02-01 02:01:00,
2013-01-31 18:11:00,46.0,44.0,30.28,South,176,0.0,0.0,92,0.00,,,0.16,,2013-02-01 02:11:00,
2013-01-31 18:21:00,46.0,44.0,30.28,South,184,0.0,1.0,92,0.00,,,0.16,,2013-02-01 02:21:00,
2013-01-31 18:31:00,46.0,44.0,30.28,South,175,0.0,2.0,92,0.00,,,0.16,,2013-02-01 02:31:00,
2013-01-31 18:41:00,46.0,44.0,30.28,South,175,0.0,2.0,92,0.00,,,0.16,,2013-02-01 02:41:00,
2013-01-31 18:52:00,46.0,44.0,30.28,SSW,196,0.0,1.0,92,0.00,,,0.14,,2013-02-01 02:52:00,
2013-01-31 19:01:00,46.0,44.0,30.28,SSW,196,0.0,1.0,92,0.00,,,0.14,,2013-02-01 03:01:00,
2013-01-31 19:11:00,46.0,44.0,30.28,SSW,196,0.0,1.0,92,0.00,,,0.14,,2013-02-01 03:11:00,
2013-01-31 19:21:00,46.0,44.0,30.28,South,188,0.0,1.0,92,0.00,,,0.14,,2013-02-01 03:21:00,
2013-01-31 19:32:00,46.0,44.0,30.28,SW,227,0.0,3.0,92,0.00,,,0.14,,2013-02-01 03:32:00,
2013-01-31 19:41:00,46.0,44.0,30.28,SW,227,0.0,3.0,92,0.00,,,0.14,,2013-02-01 03:41:00,
2013-01-31 19:52:00,46.0,44.0,30.28,SSW,200,0.0,2.0,92,0.00,,,0.12,,2013-02-01 03:52:00,
2013-01-31 20:01:00,46.0,44.0,30.28,SSW,200,0.0,1.0,92,0.00,,,0.12,,2013-02-01 04:01:00,
2013-01-31 20:11:00,46.0,44.0,30.28,SSE,167,0.0,2.0,92,0.00,,,0.12,,2013-02-01 04:11:00,
2013-01-31 20:21:00,46.0,44.0,30.28,SSE,167,0.0,2.0,92,0.00,,,0.12,,2013-02-01 04:21:00,
2013-01-31 20:31:00,46.0,44.0,30.28,SSE,157,0.0,2.0,91,0.00,,,0.12,,2013-02-01 04:31:00,
2013-01-31 20:41:00,46.0,44.0,30.28,SSE,157,0.0,2.0,91,0.00,,,0.12,,2013-02-01 04:41:00,
2013-01-31 20:52:00,46.0,44.0,30.28,SSW,213,0.0,3.0,91,0.00,,,0.11,,2013-02-01 04:52:00,
2013-01-31 21:02:00,46.0,44.0,30.28,SSE,164,0.0,3.0,91,0.00,,,0.11,,2013-02-01 05:02:00,
2013-01-31 21:11:00,46.0,44.0,30.28,SSE,164,0.0,3.0,91,0.00,,,0.11,,2013-02-01 05:11:00,
2013-01-31 21:22:00,46.0,44.0,30.28,South,175,0.0,0.0,91,0.00,,,0.11,,2013-02-01 05:22:00,
2013-01-31 21:31:00,46.0,44.0,30.28,South,175,0.0,2.0,91,0.00,,,0.11,,2013-02-01 05:31:00,
2013-01-31 21:41:00,46.0,44.0,30.28,South,175,0.0,2.0,91,0.00,,,0.11,,2013-02-01 05:41:00,
2013-01-31 21:52:00,46.0,44.0,30.28,South,175,0.0,0.0,91,0.00,,,0.09,,2013-02-01 05:52:00,
2013-01-31 22:01:00,46.0,44.0,30.28,South,175,0.0,0.0,91,0.00,,,0.09,,2013-02-01 06:01:00,
2013-01-31 22:11:00,46.0,44.0,30.28,South,175,0.0,0.0,91,0.00,,,0.09,,2013-02-01 06:11:00,
2013-01-31 22:21:00,45.0,43.0,30.28,South,175,0.0,0.0,91,0.00,,,0.09,,2013-02-01 06:21:00,
2013-01-31 22:31:00,45.0,43.0,30.29,South,175,0.0,0.0,91,0.00,,,0.09,,2013-02-01 06:31:00,
2013-01-31 22:41:00,45.0,43.0,30.29,South,175,0.0,0.0,91,0.00,,,0.09,,2013-02-01 06:41:00,
2013-01-31 22:52:00,45.0,43.0,30.29,South,175,0.0,1.0,91,0.00,,,0.08,,2013-02-01 06:52:00,
2013-01-31 23:01:00,45.0,43.0,30.29,South,175,0.0,0.0,92,0.00,,,0.08,,2013-02-01 07:01:00,
2013-01-31 23:11:00,45.0,43.0,30.29,South,175,0.0,0.0,92,0.00,,,0.08,,2013-02-01 07:11:00,
2013-01-31 23:21:00,45.0,43.0,30.29,South,175,0.0,0.0,92,0.00,,,0.08,,2013-02-01 07:21:00,
2013-01-31 23:31:00,45.0,43.0,30.29,South,175,0.0,0.0,92,0.00,,,0.08,,2013-02-01 07:31:00,
2013-01-31 23:41:00,45.0,43.0,30.29,South,175,0.0,0.0,92,0.00,,,0.08,,2013-02-01 07:41:00,
2013-01-31 23:52:00,45.0,43.0,30.29,South,175,0.0,0.0,92,0.00,,,0.07,,2013-02-01 07:52:00,